sensor_id;sensor_type;location;lat;lon;timestamp;pressure;altitude;pressure_sealevel;temperature;humidity
43681;BME280;29281;50.356;30.894;2022-07-18T00:00:26;100516.75;;;16.66;73.62
43681;BME280;29281;50.356;30.894;2022-07-18T00:01:33;100523.81;;;16.67;73.50
43681;BME280;29281;50.356;30.894;2022-07-18T00:02:40;100518.39;;;16.57;74.40
43681;BME280;29281;50.356;30.894;2022-07-18T00:03:46;100525.32;;;16.60;75.03
43681;BME280;29281;50.356;30.894;2022-07-18T00:04:51;100526.56;;;16.56;75.28
43681;BME280;29281;50.356;30.894;2022-07-18T00:05:56;100518.52;;;16.56;75.14
43681;BME280;29281;50.356;30.894;2022-07-18T00:07:00;100531.92;;;16.56;75.26
43681;BME280;29281;50.356;30.894;2022-07-18T00:08:04;100528.53;;;16.53;75.34
43681;BME280;29281;50.356;30.894;2022-07-18T00:09:07;100531.80;;;16.57;75.44
43681;BME280;29281;50.356;30.894;2022-07-18T00:10:18;100528.72;;;16.62;75.19
43681;BME280;29281;50.356;30.894;2022-07-18T00:11:21;100523.62;;;16.59;75.37
43681;BME280;29281;50.356;30.894;2022-07-18T00:12:28;100531.08;;;16.55;75.84
43681;BME280;29281;50.356;30.894;2022-07-18T00:13:30;100538.66;;;16.50;75.60
43681;BME280;29281;50.356;30.894;2022-07-18T00:14:38;100523.75;;;16.57;75.26
43681;BME280;29281;50.356;30.894;2022-07-18T00:15:52;100525.64;;;16.66;76.25
43681;BME280;29281;50.356;30.894;2022-07-18T00:16:55;100527.55;;;16.54;76.23
43681;BME280;29281;50.356;30.894;2022-07-18T00:17:58;100530.62;;;16.50;76.38
43681;BME280;29281;50.356;30.894;2022-07-18T00:19:06;100526.11;;;16.50;76.28
43681;BME280;29281;50.356;30.894;2022-07-18T00:20:14;100527.41;;;16.56;76.45
43681;BME280;29281;50.356;30.894;2022-07-18T00:21:18;100528.95;;;16.49;76.40
43681;BME280;29281;50.356;30.894;2022-07-18T00:22:21;100525.45;;;16.58;76.46
43681;BME280;29281;50.356;30.894;2022-07-18T00:23:25;100529.83;;;16.59;76.74
43681;BME280;29281;50.356;30.894;2022-07-18T00:24:28;100521.27;;;16.65;76.54
43681;BME280;29281;50.356;30.894;2022-07-18T00:25:35;100533.69;;;16.66;76.57
43681;BME280;29281;50.356;30.894;2022-07-18T00:26:38;100528.06;;;16.69;76.72
43681;BME280;29281;50.356;30.894;2022-07-18T00:27:44;100524.66;;;16.67;76.68
43681;BME280;29281;50.356;30.894;2022-07-18T00:28:48;100522.28;;;16.64;77.16
43681;BME280;29281;50.356;30.894;2022-07-18T00:29:50;100530.03;;;16.67;76.79
43681;BME280;29281;50.356;30.894;2022-07-18T00:30:54;100524.34;;;16.61;77.33
43681;BME280;29281;50.356;30.894;2022-07-18T00:31:57;100531.01;;;16.66;76.89
43681;BME280;29281;50.356;30.894;2022-07-18T00:33:08;100527.08;;;16.70;77.43
43681;BME280;29281;50.356;30.894;2022-07-18T00:34:18;100524.66;;;16.67;77.46
43681;BME280;29281;50.356;30.894;2022-07-18T00:35:23;100527.41;;;16.77;76.46
43681;BME280;29281;50.356;30.894;2022-07-18T00:36:28;100525.01;;;16.83;76.27
43681;BME280;29281;50.356;30.894;2022-07-18T00:37:32;100528.41;;;16.85;76.35
43681;BME280;29281;50.356;30.894;2022-07-18T00:38:37;100527.95;;;16.80;76.57
43681;BME280;29281;50.356;30.894;2022-07-18T00:39:44;100531.06;;;16.76;76.38
43681;BME280;29281;50.356;30.894;2022-07-18T00:40:57;100531.20;;;16.74;76.47
43681;BME280;29281;50.356;30.894;2022-07-18T00:42:04;100532.70;;;16.67;76.95
43681;BME280;29281;50.356;30.894;2022-07-18T00:43:14;100540.75;;;16.67;77.13
43681;BME280;29281;50.356;30.894;2022-07-18T00:44:19;100536.77;;;16.62;77.46
43681;BME280;29281;50.356;30.894;2022-07-18T00:45:23;100536.70;;;16.73;76.91
43681;BME280;29281;50.356;30.894;2022-07-18T00:46:29;100536.43;;;16.76;77.01
43681;BME280;29281;50.356;30.894;2022-07-18T00:47:34;100537.55;;;16.73;77.00
43681;BME280;29281;50.356;30.894;2022-07-18T00:48:39;100535.58;;;16.75;76.94
43681;BME280;29281;50.356;30.894;2022-07-18T00:49:43;100531.46;;;16.71;77.16
43681;BME280;29281;50.356;30.894;2022-07-18T00:50:47;100531.46;;;16.71;77.40
43681;BME280;29281;50.356;30.894;2022-07-18T00:51:54;100528.06;;;16.69;77.44
43681;BME280;29281;50.356;30.894;2022-07-18T00:53:02;100525.97;;;16.73;77.29
43681;BME280;29281;50.356;30.894;2022-07-18T00:54:06;100526.42;;;16.78;77.04
43681;BME280;29281;50.356;30.894;2022-07-18T00:55:13;100530.61;;;16.71;77.44
43681;BME280;29281;50.356;30.894;2022-07-18T00:56:20;100520.73;;;16.71;77.58
43681;BME280;29281;50.356;30.894;2022-07-18T00:57:26;100523.30;;;16.82;76.87
43681;BME280;29281;50.356;30.894;2022-07-18T00:58:33;100528.80;;;16.81;77.06
43681;BME280;29281;50.356;30.894;2022-07-18T00:59:46;100524.61;;;16.88;77.12
43681;BME280;29281;50.356;30.894;2022-07-18T01:01:08;100524.59;;;16.78;77.00
43681;BME280;29281;50.356;30.894;2022-07-18T01:02:33;100531.41;;;16.62;77.61
43681;BME280;29281;50.356;30.894;2022-07-18T01:03:37;100533.17;;;16.51;78.19
43681;BME280;29281;50.356;30.894;2022-07-18T01:04:42;100525.36;;;16.39;78.89
43681;BME280;29281;50.356;30.894;2022-07-18T01:05:46;100541.52;;;16.28;79.56
43681;BME280;29281;50.356;30.894;2022-07-18T01:06:50;100541.91;;;16.23;79.93
43681;BME280;29281;50.356;30.894;2022-07-18T01:07:56;100542.16;;;16.20;80.03
43681;BME280;29281;50.356;30.894;2022-07-18T01:08:59;100541.86;;;16.13;80.46
43681;BME280;29281;50.356;30.894;2022-07-18T01:10:09;100543.22;;;16.08;80.63
43681;BME280;29281;50.356;30.894;2022-07-18T01:11:12;100544.67;;;16.12;80.59
43681;BME280;29281;50.356;30.894;2022-07-18T01:12:15;100544.28;;;16.16;80.24
43681;BME280;29281;50.356;30.894;2022-07-18T01:13:20;100542.84;;;16.12;80.50
43681;BME280;29281;50.356;30.894;2022-07-18T01:14:24;100533.28;;;16.19;79.88
43681;BME280;29281;50.356;30.894;2022-07-18T01:15:28;100544.41;;;16.15;80.14
43681;BME280;29281;50.356;30.894;2022-07-18T01:16:32;100541.61;;;16.16;80.16
43681;BME280;29281;50.356;30.894;2022-07-18T01:17:39;100540.88;;;16.14;79.82
43681;BME280;29281;50.356;30.894;2022-07-18T01:18:47;100542.84;;;16.12;80.06
43681;BME280;29281;50.356;30.894;2022-07-18T01:19:51;100542.71;;;16.14;79.83
43681;BME280;29281;50.356;30.894;2022-07-18T01:20:56;100542.25;;;16.09;80.01
43681;BME280;29281;50.356;30.894;2022-07-18T01:22:10;100540.88;;;16.14;79.59
43681;BME280;29281;50.356;30.894;2022-07-18T01:23:14;100541.86;;;16.13;79.69
43681;BME280;29281;50.356;30.894;2022-07-18T01:24:17;100545.77;;;16.09;79.77
43681;BME280;29281;50.356;30.894;2022-07-18T01:25:20;100548.84;;;16.05;79.75
43681;BME280;29281;50.356;30.894;2022-07-18T01:26:24;100552.36;;;16.05;79.90
43681;BME280;29281;50.356;30.894;2022-07-18T01:27:29;100552.66;;;16.02;79.92
43681;BME280;29281;50.356;30.894;2022-07-18T01:28:36;100557.16;;;16.02;79.89
43681;BME280;29281;50.356;30.894;2022-07-18T01:29:39;100552.69;;;15.91;80.18
43681;BME280;29281;50.356;30.894;2022-07-18T01:30:43;100552.31;;;15.96;80.38
43681;BME280;29281;50.356;30.894;2022-07-18T01:31:47;100550.14;;;15.90;80.16
43681;BME280;29281;50.356;30.894;2022-07-18T01:32:58;100549.88;;;15.93;79.98
43681;BME280;29281;50.356;30.894;2022-07-18T01:34:02;100540.94;;;15.82;80.39
43681;BME280;29281;50.356;30.894;2022-07-18T01:35:07;100545.56;;;15.80;80.59
43681;BME280;29281;50.356;30.894;2022-07-18T01:36:14;100548.00;;;15.83;80.36
43681;BME280;29281;50.356;30.894;2022-07-18T01:37:17;100553.23;;;15.85;80.43
43681;BME280;29281;50.356;30.894;2022-07-18T01:38:25;100558.23;;;15.78;80.55
43681;BME280;29281;50.356;30.894;2022-07-18T01:39:31;100549.09;;;15.81;80.39
43681;BME280;29281;50.356;30.894;2022-07-18T01:40:38;100551.91;;;15.79;80.63
43681;BME280;29281;50.356;30.894;2022-07-18T01:41:41;100555.80;;;15.75;80.65
43681;BME280;29281;50.356;30.894;2022-07-18T01:42:49;100550.86;;;15.71;81.04
43681;BME280;29281;50.356;30.894;2022-07-18T01:44:00;100557.92;;;15.72;81.05
43681;BME280;29281;50.356;30.894;2022-07-18T01:45:05;100549.76;;;15.73;81.08
43681;BME280;29281;50.356;30.894;2022-07-18T01:46:14;100558.77;;;15.72;81.32
43681;BME280;29281;50.356;30.894;2022-07-18T01:47:19;100559.87;;;15.70;81.16
43681;BME280;29281;50.356;30.894;2022-07-18T01:48:24;100563.84;;;15.75;81.21
43681;BME280;29281;50.356;30.894;2022-07-18T01:49:31;100560.31;;;15.75;81.29
43681;BME280;29281;50.356;30.894;2022-07-18T01:50:38;100557.63;;;15.75;81.25
43681;BME280;29281;50.356;30.894;2022-07-18T01:51:46;100555.68;;;15.77;81.29
43681;BME280;29281;50.356;30.894;2022-07-18T01:52:51;100557.92;;;15.72;81.70
43681;BME280;29281;50.356;30.894;2022-07-18T01:53:57;100567.05;;;15.69;82.19
43681;BME280;29281;50.356;30.894;2022-07-18T01:55:05;100558.61;;;15.74;81.93
43681;BME280;29281;50.356;30.894;2022-07-18T01:56:12;100559.74;;;15.71;82.10
43681;BME280;29281;50.356;30.894;2022-07-18T01:57:17;100561.52;;;15.82;81.50
43681;BME280;29281;50.356;30.894;2022-07-18T01:58:32;100558.11;;;15.80;82.19
43681;BME280;29281;50.356;30.894;2022-07-18T01:59:35;100564.42;;;15.58;83.06
43681;BME280;29281;50.356;30.894;2022-07-18T02:00:41;100555.86;;;15.64;83.14
43681;BME280;29281;50.356;30.894;2022-07-18T02:01:45;100564.14;;;15.61;83.31
43681;BME280;29281;50.356;30.894;2022-07-18T02:02:56;100567.80;;;15.60;84.07
43681;BME280;29281;50.356;30.894;2022-07-18T02:04:01;100565.59;;;15.65;83.60
43681;BME280;29281;50.356;30.894;2022-07-18T02:05:12;100567.42;;;15.65;83.55
43681;BME280;29281;50.356;30.894;2022-07-18T02:06:17;100566.47;;;15.55;84.31
43681;BME280;29281;50.356;30.894;2022-07-18T02:07:20;100567.42;;;15.65;83.62
43681;BME280;29281;50.356;30.894;2022-07-18T02:08:26;100568.02;;;15.68;83.87
43681;BME280;29281;50.356;30.894;2022-07-18T02:09:33;100566.94;;;15.60;84.20
43681;BME280;29281;50.356;30.894;2022-07-18T02:10:40;100566.57;;;15.64;84.46
43681;BME280;29281;50.356;30.894;2022-07-18T02:11:48;100568.63;;;15.72;83.96
43681;BME280;29281;50.356;30.894;2022-07-18T02:12:52;100576.18;;;15.67;84.43
43681;BME280;29281;50.356;30.894;2022-07-18T02:13:56;100568.22;;;15.76;83.86
43681;BME280;29281;50.356;30.894;2022-07-18T02:15:00;100571.88;;;15.75;83.93
43681;BME280;29281;50.356;30.894;2022-07-18T02:16:04;100572.84;;;15.74;84.03
43681;BME280;29281;50.356;30.894;2022-07-18T02:17:08;100571.38;;;15.81;83.71
43681;BME280;29281;50.356;30.894;2022-07-18T02:18:12;100573.01;;;15.73;84.26
43681;BME280;29281;50.356;30.894;2022-07-18T02:19:16;100574.73;;;15.63;85.33
43681;BME280;29281;50.356;30.894;2022-07-18T02:20:22;100577.41;;;15.63;85.50
43681;BME280;29281;50.356;30.894;2022-07-18T02:21:26;100577.17;;;15.55;86.52
43681;BME280;29281;50.356;30.894;2022-07-18T02:22:30;100571.81;;;15.55;86.55
43681;BME280;29281;50.356;30.894;2022-07-18T02:23:36;100572.31;;;15.48;87.38
43681;BME280;29281;50.356;30.894;2022-07-18T02:24:38;100580.86;;;15.42;88.13
43681;BME280;29281;50.356;30.894;2022-07-18T02:25:42;100575.84;;;15.49;87.91
43681;BME280;29281;50.356;30.894;2022-07-18T02:26:46;100575.59;;;15.52;87.94
43681;BME280;29281;50.356;30.894;2022-07-18T02:27:50;100574.12;;;15.59;87.68
43681;BME280;29281;50.356;30.894;2022-07-18T02:28:53;100574.12;;;15.59;87.68
43681;BME280;29281;50.356;30.894;2022-07-18T02:29:56;100570.70;;;15.68;87.42
43681;BME280;29281;50.356;30.894;2022-07-18T02:31:01;100561.82;;;15.68;87.60
43681;BME280;29281;50.356;30.894;2022-07-18T02:32:05;100568.75;;;15.70;87.47
43681;BME280;29281;50.356;30.894;2022-07-18T02:33:09;100565.22;;;15.70;87.71
43681;BME280;29281;50.356;30.894;2022-07-18T02:34:13;100566.20;;;15.69;87.80
43681;BME280;29281;50.356;30.894;2022-07-18T02:35:16;100564.56;;;15.77;87.29
43681;BME280;29281;50.356;30.894;2022-07-18T02:36:22;100568.27;;;15.65;87.86
43681;BME280;29281;50.356;30.894;2022-07-18T02:37:24;100569.55;;;15.82;86.87
43681;BME280;29281;50.356;30.894;2022-07-18T02:38:28;100562.55;;;15.70;87.48
43681;BME280;29281;50.356;30.894;2022-07-18T02:39:32;100565.41;;;15.78;87.17
43681;BME280;29281;50.356;30.894;2022-07-18T02:40:36;100568.63;;;15.72;87.41
43681;BME280;29281;50.356;30.894;2022-07-18T02:41:48;100574.83;;;15.72;87.44
43681;BME280;29281;50.356;30.894;2022-07-18T02:42:52;100572.28;;;15.71;87.57
43681;BME280;29281;50.356;30.894;2022-07-18T02:43:55;100571.80;;;15.66;88.03
43681;BME280;29281;50.356;30.894;2022-07-18T02:45:01;100576.91;;;15.69;88.05
43681;BME280;29281;50.356;30.894;2022-07-18T02:46:06;100570.39;;;15.82;87.05
43681;BME280;29281;50.356;30.894;2022-07-18T02:47:17;100580.33;;;15.92;87.11
43681;BME280;29281;50.356;30.894;2022-07-18T02:48:23;100573.98;;;15.93;86.62
43681;BME280;29281;50.356;30.894;2022-07-18T02:49:26;100580.98;;;15.84;86.80
43681;BME280;29281;50.356;30.894;2022-07-18T02:50:30;100580.73;;;15.87;86.53
43681;BME280;29281;50.356;30.894;2022-07-18T02:51:34;100580.86;;;15.86;86.91
43681;BME280;29281;50.356;30.894;2022-07-18T02:52:39;100585.68;;;15.92;86.43
43681;BME280;29281;50.356;30.894;2022-07-18T02:53:43;100582.27;;;15.90;86.38
43681;BME280;29281;50.356;30.894;2022-07-18T02:54:48;100583.22;;;16.00;86.29
43681;BME280;29281;50.356;30.894;2022-07-18T02:55:52;100580.13;;;16.04;85.68
43681;BME280;29281;50.356;30.894;2022-07-18T02:56:57;100576.69;;;16.13;85.13
43681;BME280;29281;50.356;30.894;2022-07-18T02:58:00;100583.16;;;16.11;85.23
43681;BME280;29281;50.356;30.894;2022-07-18T02:59:04;100585.84;;;16.11;85.25
43681;BME280;29281;50.356;30.894;2022-07-18T03:00:12;100583.83;;;16.03;85.31
43681;BME280;29281;50.356;30.894;2022-07-18T03:01:17;100586.41;;;15.94;85.99
43681;BME280;29281;50.356;30.894;2022-07-18T03:02:22;100590.78;;;15.95;86.22
43681;BME280;29281;50.356;30.894;2022-07-18T03:03:24;100584.67;;;16.04;85.59
43681;BME280;29281;50.356;30.894;2022-07-18T03:04:28;100589.11;;;16.14;85.25
43681;BME280;29281;50.356;30.894;2022-07-18T03:05:31;100582.95;;;16.24;84.37
43681;BME280;29281;50.356;30.894;2022-07-18T03:06:35;100586.17;;;16.17;84.67
43681;BME280;29281;50.356;30.894;2022-07-18T03:07:39;100588.57;;;16.21;84.53
43681;BME280;29281;50.356;30.894;2022-07-18T03:08:41;100595.63;;;16.22;84.59
43681;BME280;29281;50.356;30.894;2022-07-18T03:09:47;100588.06;;;16.27;84.49
43681;BME280;29281;50.356;30.894;2022-07-18T03:10:50;100591.59;;;16.27;84.29
43681;BME280;29281;50.356;30.894;2022-07-18T03:11:55;100592.49;;;16.37;83.60
43681;BME280;29281;50.356;30.894;2022-07-18T03:13:06;100593.59;;;16.56;83.17
43681;BME280;29281;50.356;30.894;2022-07-18T03:14:09;100596.05;;;16.89;81.34
43681;BME280;29281;50.356;30.894;2022-07-18T03:15:11;100587.12;;;17.19;79.47
43681;BME280;29281;50.356;30.894;2022-07-18T03:16:16;100586.73;;;17.33;78.58
43681;BME280;29281;50.356;30.894;2022-07-18T03:17:21;100589.41;;;17.33;78.54
43681;BME280;29281;50.356;30.894;2022-07-18T03:18:25;100592.22;;;17.22;78.63
43681;BME280;29281;50.356;30.894;2022-07-18T03:19:29;100594.64;;;17.25;78.66
43681;BME280;29281;50.356;30.894;2022-07-18T03:20:32;100589.94;;;17.17;78.68
43681;BME280;29281;50.356;30.894;2022-07-18T03:21:37;100591.43;;;17.01;79.52
43681;BME280;29281;50.356;30.894;2022-07-18T03:22:45;100592.26;;;16.92;79.95
43681;BME280;29281;50.356;30.894;2022-07-18T03:23:48;100611.13;;;16.60;81.82
43681;BME280;29281;50.356;30.894;2022-07-18T03:24:57;100608.91;;;16.44;82.90
43681;BME280;29281;50.356;30.894;2022-07-18T03:26:01;100605.00;;;16.48;83.02
43681;BME280;29281;50.356;30.894;2022-07-18T03:27:05;100606.95;;;16.46;83.20
43681;BME280;29281;50.356;30.894;2022-07-18T03:28:08;100607.39;;;16.51;83.40
43681;BME280;29281;50.356;30.894;2022-07-18T03:29:13;100605.97;;;16.68;82.47
43681;BME280;29281;50.356;30.894;2022-07-18T03:30:18;100607.00;;;16.35;83.79
43681;BME280;29281;50.356;30.894;2022-07-18T03:31:23;100607.59;;;16.38;84.16
43681;BME280;29281;50.356;30.894;2022-07-18T03:32:27;100609.04;;;16.42;83.85
43681;BME280;29281;50.356;30.894;2022-07-18T03:33:31;100618.27;;;16.70;82.58
43681;BME280;29281;50.356;30.894;2022-07-18T03:34:35;100615.12;;;16.65;82.69
43681;BME280;29281;50.356;30.894;2022-07-18T03:35:40;100613.09;;;16.78;82.34
43681;BME280;29281;50.356;30.894;2022-07-18T03:36:44;100613.16;;;16.67;82.61
43681;BME280;29281;50.356;30.894;2022-07-18T03:37:47;100616.75;;;16.57;83.19
43681;BME280;29281;50.356;30.894;2022-07-18T03:38:51;100620.09;;;16.70;83.04
43681;BME280;29281;50.356;30.894;2022-07-18T03:39:58;100618.72;;;16.75;82.68
43681;BME280;29281;50.356;30.894;2022-07-18T03:41:02;100619.51;;;16.97;81.82
43681;BME280;29281;50.356;30.894;2022-07-18T03:42:07;100621.77;;;16.92;81.95
43681;BME280;29281;50.356;30.894;2022-07-18T03:43:12;100622.42;;;16.84;82.22
43681;BME280;29281;50.356;30.894;2022-07-18T03:44:16;100628.64;;;16.84;82.52
43681;BME280;29281;50.356;30.894;2022-07-18T03:45:20;100629.87;;;16.80;82.82
43681;BME280;29281;50.356;30.894;2022-07-18T03:46:26;100624.19;;;16.95;82.44
43681;BME280;29281;50.356;30.894;2022-07-18T03:47:32;100624.25;;;16.83;83.15
43681;BME280;29281;50.356;30.894;2022-07-18T03:48:38;100617.38;;;16.91;82.80
43681;BME280;29281;50.356;30.894;2022-07-18T03:49:42;100619.96;;;17.02;82.14
43681;BME280;29281;50.356;30.894;2022-07-18T03:50:47;100623.86;;;16.88;82.39
43681;BME280;29281;50.356;30.894;2022-07-18T04:17:39;100626.69;;;17.67;78.15
43681;BME280;29281;50.356;30.894;2022-07-18T04:18:46;100628.31;;;17.58;78.64
43681;BME280;29281;50.356;30.894;2022-07-18T04:19:53;100627.33;;;17.59;78.78
43681;BME280;29281;50.356;30.894;2022-07-18T04:20:57;100635.18;;;17.72;78.16
43681;BME280;29281;50.356;30.894;2022-07-18T04:22:02;100631.07;;;17.77;77.81
43681;BME280;29281;50.356;30.894;2022-07-18T04:23:08;100631.64;;;17.81;77.47
43681;BME280;29281;50.356;30.894;2022-07-18T04:24:13;100635.88;;;18.03;76.94
43681;BME280;29281;50.356;30.894;2022-07-18T04:25:23;100633.78;;;18.16;76.19
43681;BME280;29281;50.356;30.894;2022-07-18T04:26:24;100631.36;;;18.22;76.32
43681;BME280;29281;50.356;30.894;2022-07-18T04:27:29;100626.93;;;18.50;75.03
43681;BME280;29281;50.356;30.894;2022-07-18T04:28:33;100631.06;;;18.45;74.89
43681;BME280;29281;50.356;30.894;2022-07-18T04:29:37;100627.38;;;18.46;74.79
43681;BME280;29281;50.356;30.894;2022-07-18T04:30:44;100631.20;;;18.63;74.09
43681;BME280;29281;50.356;30.894;2022-07-18T04:31:51;100637.83;;;18.68;73.47
43681;BME280;29281;50.356;30.894;2022-07-18T04:32:57;100638.25;;;18.73;73.26
43681;BME280;29281;50.356;30.894;2022-07-18T04:34:01;100643.20;;;18.78;73.04
43681;BME280;29281;50.356;30.894;2022-07-18T04:35:10;100637.95;;;19.41;70.82
43681;BME280;29281;50.356;30.894;2022-07-18T04:36:17;100635.62;;;20.00;67.72
43681;BME280;29281;50.356;30.894;2022-07-18T04:37:23;100630.20;;;21.14;63.45
43681;BME280;29281;50.356;30.894;2022-07-18T04:38:27;100636.00;;;23.54;55.93
43681;BME280;29281;50.356;30.894;2022-07-18T04:39:33;100641.79;;;25.47;49.96
43681;BME280;29281;50.356;30.894;2022-07-18T04:40:41;100658.52;;;26.86;45.96
43681;BME280;29281;50.356;30.894;2022-07-18T04:41:47;100667.66;;;27.82;42.80
43681;BME280;29281;50.356;30.894;2022-07-18T04:42:51;100671.80;;;28.32;41.70
43681;BME280;29281;50.356;30.894;2022-07-18T04:43:55;100671.05;;;27.09;43.82
43681;BME280;29281;50.356;30.894;2022-07-18T04:45:00;100665.52;;;26.95;44.29
43681;BME280;29281;50.356;30.894;2022-07-18T04:46:04;100670.09;;;27.23;43.07
43681;BME280;29281;50.356;30.894;2022-07-18T04:47:08;100661.18;;;26.80;44.36
43681;BME280;29281;50.356;30.894;2022-07-18T04:48:13;100668.33;;;27.09;43.30
43681;BME280;29281;50.356;30.894;2022-07-18T04:49:20;100665.23;;;26.90;43.23
43681;BME280;29281;50.356;30.894;2022-07-18T04:50:24;100675.38;;;28.46;40.50
43681;BME280;29281;50.356;30.894;2022-07-18T04:51:28;100675.37;;;29.05;39.07
43681;BME280;29281;50.356;30.894;2022-07-18T04:52:36;100686.64;;;30.06;37.22
43681;BME280;29281;50.356;30.894;2022-07-18T04:53:40;100693.98;;;31.19;35.35
43681;BME280;29281;50.356;30.894;2022-07-18T04:54:44;100705.61;;;31.57;33.93
43681;BME280;29281;50.356;30.894;2022-07-18T04:55:49;100703.35;;;32.21;33.15
43681;BME280;29281;50.356;30.894;2022-07-18T04:56:53;100709.01;;;33.02;31.97
43681;BME280;29281;50.356;30.894;2022-07-18T04:57:57;100714.64;;;32.84;31.90
43681;BME280;29281;50.356;30.894;2022-07-18T04:59:03;100720.30;;;32.59;31.60
43681;BME280;29281;50.356;30.894;2022-07-18T05:00:12;100711.16;;;32.77;31.50
43681;BME280;29281;50.356;30.894;2022-07-18T05:01:17;100712.56;;;32.68;31.27
43681;BME280;29281;50.356;30.894;2022-07-18T05:02:25;100711.48;;;32.69;31.45
43681;BME280;29281;50.356;30.894;2022-07-18T05:03:36;100700.08;;;33.30;30.47
43681;BME280;29281;50.356;30.894;2022-07-18T05:04:42;100706.02;;;32.80;30.69
43681;BME280;29281;50.356;30.894;2022-07-18T05:05:45;100707.35;;;33.13;30.62
43681;BME280;29281;50.356;30.894;2022-07-18T05:06:51;100712.49;;;33.33;30.46
43681;BME280;29281;50.356;30.894;2022-07-18T05:07:56;100717.16;;;33.32;30.21
43681;BME280;29281;50.356;30.894;2022-07-18T05:08:59;100711.99;;;33.01;30.37
43681;BME280;29281;50.356;30.894;2022-07-18T05:10:03;100710.21;;;33.06;30.43
43681;BME280;29281;50.356;30.894;2022-07-18T05:11:10;100718.14;;;33.26;29.91
43681;BME280;29281;50.356;30.894;2022-07-18T05:12:14;100712.08;;;33.64;29.52
43681;BME280;29281;50.356;30.894;2022-07-18T05:13:17;100720.03;;;34.01;29.10
43681;BME280;29281;50.356;30.894;2022-07-18T05:14:21;100725.35;;;34.19;28.94
43681;BME280;29281;50.356;30.894;2022-07-18T05:15:25;100725.42;;;34.24;28.58
43681;BME280;29281;50.356;30.894;2022-07-18T05:16:29;100717.41;;;33.42;29.92
43681;BME280;29281;50.356;30.894;2022-07-18T05:17:34;100716.68;;;33.99;28.87
43681;BME280;29281;50.356;30.894;2022-07-18T05:18:39;100723.75;;;34.35;28.24
43681;BME280;29281;50.356;30.894;2022-07-18T05:19:43;100721.02;;;34.51;28.27
43681;BME280;29281;50.356;30.894;2022-07-18T05:20:47;100711.33;;;34.20;28.26
43681;BME280;29281;50.356;30.894;2022-07-18T05:21:52;100716.57;;;33.94;28.33
43681;BME280;29281;50.356;30.894;2022-07-18T05:22:56;100720.23;;;34.39;27.88
43681;BME280;29281;50.356;30.894;2022-07-18T05:24:01;100719.38;;;34.10;27.86
43681;BME280;29281;50.356;30.894;2022-07-18T05:25:07;100717.73;;;33.58;28.69
43681;BME280;29281;50.356;30.894;2022-07-18T05:26:12;100718.06;;;34.41;27.86
43681;BME280;29281;50.356;30.894;2022-07-18T05:27:15;100718.06;;;34.41;27.86
43681;BME280;29281;50.356;30.894;2022-07-18T05:28:19;100719.36;;;34.84;27.51
43681;BME280;29281;50.356;30.894;2022-07-18T05:29:23;100730.22;;;35.41;27.00
43681;BME280;29281;50.356;30.894;2022-07-18T05:30:27;100727.58;;;34.96;26.83
43681;BME280;29281;50.356;30.894;2022-07-18T05:31:31;100728.33;;;34.91;27.01
43681;BME280;29281;50.356;30.894;2022-07-18T05:32:40;100732.91;;;34.85;26.81
43681;BME280;29281;50.356;30.894;2022-07-18T05:33:44;100735.56;;;35.69;26.02
43681;BME280;29281;50.356;30.894;2022-07-18T05:34:47;100733.27;;;36.05;25.58
43681;BME280;29281;50.356;30.894;2022-07-18T05:35:50;100738.80;;;35.83;25.94
43681;BME280;29281;50.356;30.894;2022-07-18T05:36:54;100736.88;;;36.05;25.83
43681;BME280;29281;50.356;30.894;2022-07-18T05:37:57;100731.84;;;36.51;25.15
43681;BME280;29281;50.356;30.894;2022-07-18T05:39:02;100729.29;;;37.08;24.25
43681;BME280;29281;50.356;30.894;2022-07-18T05:40:08;100732.28;;;37.39;24.18
43681;BME280;29281;50.356;30.894;2022-07-18T05:41:17;100743.11;;;37.97;23.42
43681;BME280;29281;50.356;30.894;2022-07-18T05:42:21;100740.89;;;38.05;23.17
43681;BME280;29281;50.356;30.894;2022-07-18T05:43:26;100740.03;;;37.94;23.34
43681;BME280;29281;50.356;30.894;2022-07-18T05:44:29;100744.39;;;37.75;23.09
43681;BME280;29281;50.356;30.894;2022-07-18T05:45:34;100744.21;;;37.96;23.05
43681;BME280;29281;50.356;30.894;2022-07-18T05:46:38;100736.20;;;37.48;23.78
43681;BME280;29281;50.356;30.894;2022-07-18T05:47:43;100737.56;;;37.97;23.10
43681;BME280;29281;50.356;30.894;2022-07-18T05:48:48;100745.14;;;38.17;23.16
43681;BME280;29281;50.356;30.894;2022-07-18T05:49:52;100747.73;;;38.59;22.04
43681;BME280;29281;50.356;30.894;2022-07-18T05:50:56;100747.73;;;38.59;22.04
43681;BME280;29281;50.356;30.894;2022-07-18T05:52:00;100747.09;;;38.17;22.64
43681;BME280;29281;50.356;30.894;2022-07-18T05:53:04;100750.44;;;38.29;22.66
43681;BME280;29281;50.356;30.894;2022-07-18T05:54:08;100736.90;;;38.68;22.23
43681;BME280;29281;50.356;30.894;2022-07-18T05:55:13;100756.36;;;38.98;21.95
43681;BME280;29281;50.356;30.894;2022-07-18T05:56:18;100748.56;;;39.16;21.60
43681;BME280;29281;50.356;30.894;2022-07-18T05:57:22;100750.79;;;38.88;21.57
43681;BME280;29281;50.356;30.894;2022-07-18T05:58:28;100742.37;;;38.17;22.13
43681;BME280;29281;50.356;30.894;2022-07-18T05:59:32;100746.73;;;38.03;21.97
43681;BME280;29281;50.356;30.894;2022-07-18T06:00:40;100749.66;;;37.76;22.44
43681;BME280;29281;50.356;30.894;2022-07-18T06:01:44;100746.74;;;37.09;22.58
43681;BME280;29281;50.356;30.894;2022-07-18T06:02:49;100732.80;;;36.98;23.14